sensor_id;sensor_type;location;lat;lon;timestamp;pressure;altitude;pressure_sealevel;temperature;humidity
59939;BME280;45801;51.810;19.444;2023-03-16T00:01:20;99336.02;;;2.45;64.72
59939;BME280;45801;51.810;19.444;2023-03-16T00:03:47;99337.72;;;2.49;64.59
59939;BME280;45801;51.810;19.444;2023-03-16T00:06:15;99336.77;;;2.51;64.41
59939;BME280;45801;51.810;19.444;2023-03-16T00:08:41;99337.38;;;2.50;64.15
59939;BME280;45801;51.810;19.444;2023-03-16T00:11:09;99337.14;;;2.48;64.03
59939;BME280;45801;51.810;19.444;2023-03-16T00:13:37;99336.63;;;2.44;63.49
59939;BME280;45801;51.810;19.444;2023-03-16T00:16:04;99340.60;;;2.39;63.80
59939;BME280;45801;51.810;19.444;2023-03-16T00:18:30;99340.91;;;2.35;63.74
59939;BME280;45801;51.810;19.444;2023-03-16T00:21:04;99343.10;;;2.29;63.72
59939;BME280;45801;51.810;19.444;2023-03-16T00:23:32;99342.49;;;2.24;64.00
59939;BME280;45801;51.810;19.444;2023-03-16T00:26:04;99342.39;;;2.20;64.00
59939;BME280;45801;51.810;19.444;2023-03-16T00:28:32;99344.36;;;2.17;63.80
59939;BME280;45801;51.810;19.444;2023-03-16T00:31:02;99346.98;;;2.13;64.12
59939;BME280;45801;51.810;19.444;2023-03-16T00:33:31;99345.99;;;2.11;64.21
59939;BME280;45801;51.810;19.444;2023-03-16T00:36:05;99351.11;;;2.08;63.99
59939;BME280;45801;51.810;19.444;2023-03-16T00:38:36;99353.67;;;2.05;63.85
59939;BME280;45801;51.810;19.444;2023-03-16T00:41:05;99351.95;;;2.01;63.59
59939;BME280;45801;51.810;19.444;2023-03-16T00:43:34;99352.52;;;1.98;64.05
59939;BME280;45801;51.810;19.444;2023-03-16T00:46:09;99349.81;;;1.96;64.55
59939;BME280;45801;51.810;19.444;2023-03-16T00:48:40;99352.27;;;1.96;64.65
59939;BME280;45801;51.810;19.444;2023-03-16T00:51:11;99351.22;;;1.96;64.35
59939;BME280;45801;51.810;19.444;2023-03-16T00:53:42;99351.29;;;1.95;64.35
59939;BME280;45801;51.810;19.444;2023-03-16T00:56:10;99353.83;;;1.92;64.32
59939;BME280;45801;51.810;19.444;2023-03-16T00:58:38;99358.20;;;1.90;64.65
59939;BME280;45801;51.810;19.444;2023-03-16T01:01:07;99357.52;;;1.88;64.18
59939;BME280;45801;51.810;19.444;2023-03-16T01:03:35;99356.23;;;1.87;64.14
59939;BME280;45801;51.810;19.444;2023-03-16T01:06:06;99357.95;;;1.87;64.62
59939;BME280;45801;51.810;19.444;2023-03-16T01:08:32;99363.85;;;1.87;64.37
59939;BME280;45801;51.810;19.444;2023-03-16T01:11:07;99362.92;;;1.91;64.84
59939;BME280;45801;51.810;19.444;2023-03-16T01:13:36;99361.59;;;1.94;64.73
59939;BME280;45801;51.810;19.444;2023-03-16T01:16:03;99362.48;;;1.94;64.32
59939;BME280;45801;51.810;19.444;2023-03-16T01:18:31;99363.39;;;1.93;63.93
59939;BME280;45801;51.810;19.444;2023-03-16T01:21:05;99365.14;;;1.91;63.94
59939;BME280;45801;51.810;19.444;2023-03-16T01:23:32;99366.98;;;1.87;64.11
59939;BME280;45801;51.810;19.444;2023-03-16T01:25:59;99364.49;;;1.85;63.97
59939;BME280;45801;51.810;19.444;2023-03-16T01:28:30;99366.08;;;1.83;63.92
59939;BME280;45801;51.810;19.444;2023-03-16T01:31:06;99366.20;;;1.80;63.81
59939;BME280;45801;51.810;19.444;2023-03-16T01:33:37;99365.64;;;1.77;63.83
59939;BME280;45801;51.810;19.444;2023-03-16T01:36:15;99368.45;;;1.78;64.10
59939;BME280;45801;51.810;19.444;2023-03-16T01:38:42;99371.45;;;1.77;63.79
59939;BME280;45801;51.810;19.444;2023-03-16T01:41:09;99374.03;;;1.77;64.15
59939;BME280;45801;51.810;19.444;2023-03-16T01:43:38;99372.31;;;1.77;63.94
59939;BME280;45801;51.810;19.444;2023-03-16T01:48:39;99367.79;;;2.09;63.90
59939;BME280;45801;51.810;19.444;2023-03-16T01:51:15;99370.99;;;2.10;63.64
59939;BME280;45801;51.810;19.444;2023-03-16T01:53:52;99369.23;;;2.05;63.09
59939;BME280;45801;51.810;19.444;2023-03-16T01:56:28;99374.41;;;1.99;62.90
59939;BME280;45801;51.810;19.444;2023-03-16T01:58:56;99372.08;;;1.91;62.91
59939;BME280;45801;51.810;19.444;2023-03-16T02:01:27;99374.60;;;1.86;63.09
59939;BME280;45801;51.810;19.444;2023-03-16T02:03:59;99376.85;;;1.82;63.43
59939;BME280;45801;51.810;19.444;2023-03-16T02:06:28;99376.88;;;1.80;63.56
59939;BME280;45801;51.810;19.444;2023-03-16T02:08:55;99376.15;;;1.77;63.64
59939;BME280;45801;51.810;19.444;2023-03-16T02:11:23;99377.78;;;1.74;63.51
59939;BME280;45801;51.810;19.444;2023-03-16T02:13:50;99377.65;;;1.70;63.42
59939;BME280;45801;51.810;19.444;2023-03-16T02:16:19;99381.39;;;1.65;63.30
59939;BME280;45801;51.810;19.444;2023-03-16T02:18:49;99382.15;;;1.62;63.53
59939;BME280;45801;51.810;19.444;2023-03-16T02:21:18;99388.98;;;1.61;63.77
59939;BME280;45801;51.810;19.444;2023-03-16T02:23:47;99393.63;;;1.60;63.62
59939;BME280;45801;51.810;19.444;2023-03-16T02:26:28;99398.36;;;1.61;64.23
59939;BME280;45801;51.810;19.444;2023-03-16T02:31:52;99398.27;;;1.60;64.83
59939;BME280;45801;51.810;19.444;2023-03-16T02:34:20;99401.65;;;1.59;64.13
59939;BME280;45801;51.810;19.444;2023-03-16T02:36:48;99405.20;;;1.58;64.35
59939;BME280;45801;51.810;19.444;2023-03-16T02:39:17;99407.39;;;1.57;64.89
59939;BME280;45801;51.810;19.444;2023-03-16T02:41:44;99408.27;;;1.58;64.70
59939;BME280;45801;51.810;19.444;2023-03-16T02:44:16;99411.38;;;1.58;64.86
59939;BME280;45801;51.810;19.444;2023-03-16T02:46:45;99408.47;;;1.58;65.09
59939;BME280;45801;51.810;19.444;2023-03-16T02:49:13;99413.62;;;1.60;65.11
59939;BME280;45801;51.810;19.444;2023-03-16T02:51:43;99413.95;;;1.62;64.59
59939;BME280;45801;51.810;19.444;2023-03-16T02:54:11;99420.13;;;1.62;64.45
59939;BME280;45801;51.810;19.444;2023-03-16T02:56:38;99422.11;;;1.60;64.37
59939;BME280;45801;51.810;19.444;2023-03-16T02:59:05;99424.98;;;1.60;64.35
59939;BME280;45801;51.810;19.444;2023-03-16T03:01:31;99428.85;;;1.58;64.13
59939;BME280;45801;51.810;19.444;2023-03-16T03:04:00;99429.11;;;1.57;64.02
59939;BME280;45801;51.810;19.444;2023-03-16T03:06:27;99432.27;;;1.55;63.65
59939;BME280;45801;51.810;19.444;2023-03-16T03:08:54;99430.96;;;1.52;63.46
59939;BME280;45801;51.810;19.444;2023-03-16T03:11:20;99434.44;;;1.50;63.95
59939;BME280;45801;51.810;19.444;2023-03-16T03:13:47;99437.87;;;1.48;64.01
59939;BME280;45801;51.810;19.444;2023-03-16T03:16:13;99440.22;;;1.45;63.62
59939;BME280;45801;51.810;19.444;2023-03-16T03:18:40;99440.27;;;1.44;63.52
59939;BME280;45801;51.810;19.444;2023-03-16T03:21:06;99444.39;;;1.44;63.54
59939;BME280;45801;51.810;19.444;2023-03-16T03:23:33;99447.55;;;1.42;63.56
59939;BME280;45801;51.810;19.444;2023-03-16T03:26:01;99447.23;;;1.40;63.84
59939;BME280;45801;51.810;19.444;2023-03-16T03:28:29;99452.58;;;1.40;64.53
59939;BME280;45801;51.810;19.444;2023-03-16T03:30:56;99449.27;;;1.39;63.99
59939;BME280;45801;51.810;19.444;2023-03-16T03:33:23;99448.09;;;1.38;63.61
59939;BME280;45801;51.810;19.444;2023-03-16T03:35:57;99454.14;;;1.36;63.41
59939;BME280;45801;51.810;19.444;2023-03-16T03:38:25;99452.83;;;1.33;63.31
59939;BME280;45801;51.810;19.444;2023-03-16T03:40:52;99457.17;;;1.31;63.52
59939;BME280;45801;51.810;19.444;2023-03-16T03:43:20;99457.70;;;1.31;63.96
59939;BME280;45801;51.810;19.444;2023-03-16T03:45:47;99460.73;;;1.30;64.40
59939;BME280;45801;51.810;19.444;2023-03-16T03:48:13;99462.64;;;1.31;63.71
59939;BME280;45801;51.810;19.444;2023-03-16T03:50:40;99462.69;;;1.29;63.58
59939;BME280;45801;51.810;19.444;2023-03-16T03:53:06;99460.63;;;1.27;63.77
59939;BME280;45801;51.810;19.444;2023-03-16T03:55:33;99466.12;;;1.27;63.94
59939;BME280;45801;51.810;19.444;2023-03-16T03:57:59;99471.15;;;1.27;64.46
59939;BME280;45801;51.810;19.444;2023-03-16T04:00:26;99472.30;;;1.28;64.77
59939;BME280;45801;51.810;19.444;2023-03-16T04:02:53;99477.33;;;1.31;64.55
59939;BME280;45801;51.810;19.444;2023-03-16T04:05:20;99473.13;;;1.32;64.85
59939;BME280;45801;51.810;19.444;2023-03-16T04:07:47;99475.37;;;1.34;64.88
59939;BME280;45801;51.810;19.444;2023-03-16T04:10:14;99472.97;;;1.34;64.33
59939;BME280;45801;51.810;19.444;2023-03-16T04:12:41;99475.36;;;1.34;64.02
59939;BME280;45801;51.810;19.444;2023-03-16T04:15:08;99473.88;;;1.33;64.22
59939;BME280;45801;51.810;19.444;2023-03-16T04:17:35;99475.79;;;1.33;64.02
59939;BME280;45801;51.810;19.444;2023-03-16T04:20:01;99478.50;;;1.32;63.92
59939;BME280;45801;51.810;19.444;2023-03-16T04:22:31;99480.90;;;1.30;63.97
59939;BME280;45801;51.810;19.444;2023-03-16T04:24:57;99478.83;;;1.30;63.95
59939;BME280;45801;51.810;19.444;2023-03-16T04:27:24;99480.77;;;1.29;63.67
59939;BME280;45801;51.810;19.444;2023-03-16T04:29:50;99480.71;;;1.26;63.59
59939;BME280;45801;51.810;19.444;2023-03-16T04:32:20;99481.69;;;1.23;63.66
59939;BME280;45801;51.810;19.444;2023-03-16T04:34:47;99482.45;;;1.22;63.87
59939;BME280;45801;51.810;19.444;2023-03-16T04:37:13;99479.60;;;1.21;63.86
59939;BME280;45801;51.810;19.444;2023-03-16T04:39:40;99478.65;;;1.20;64.08
59939;BME280;45801;51.810;19.444;2023-03-16T04:42:07;99484.09;;;1.18;64.04
59939;BME280;45801;51.810;19.444;2023-03-16T04:44:33;99484.91;;;1.18;64.09
59939;BME280;45801;51.810;19.444;2023-03-16T04:47:00;99486.87;;;1.17;64.03
59939;BME280;45801;51.810;19.444;2023-03-16T04:49:26;99488.99;;;1.15;63.83
59939;BME280;45801;51.810;19.444;2023-03-16T04:51:53;99494.27;;;1.12;63.73
59939;BME280;45801;51.810;19.444;2023-03-16T04:54:19;99494.85;;;1.09;63.67
59939;BME280;45801;51.810;19.444;2023-03-16T04:56:46;99500.40;;;1.07;63.69
59939;BME280;45801;51.810;19.444;2023-03-16T04:59:12;99505.42;;;1.06;63.82
59939;BME280;45801;51.810;19.444;2023-03-16T05:01:39;99504.86;;;1.03;63.65
59939;BME280;45801;51.810;19.444;2023-03-16T05:04:05;99510.56;;;1.01;63.69
59939;BME280;45801;51.810;19.444;2023-03-16T05:06:32;99509.38;;;0.99;63.76
59939;BME280;45801;51.810;19.444;2023-03-16T05:08:59;99513.45;;;0.98;63.81
59939;BME280;45801;51.810;19.444;2023-03-16T05:11:26;99512.42;;;0.99;63.78
59939;BME280;45801;51.810;19.444;2023-03-16T05:13:54;99511.55;;;0.99;63.84
59939;BME280;45801;51.810;19.444;2023-03-16T05:16:20;99510.55;;;0.99;63.92
59939;BME280;45801;51.810;19.444;2023-03-16T05:18:47;99513.19;;;0.99;64.27
59939;BME280;45801;51.810;19.444;2023-03-16T05:21:13;99516.59;;;0.99;64.18
59939;BME280;45801;51.810;19.444;2023-03-16T05:23:40;99520.35;;;0.98;64.17
59939;BME280;45801;51.810;19.444;2023-03-16T05:26:06;99521.10;;;0.99;64.52
59939;BME280;45801;51.810;19.444;2023-03-16T05:28:34;99525.68;;;1.00;64.86
59939;BME280;45801;51.810;19.444;2023-03-16T05:31:00;99526.48;;;1.02;65.01
59939;BME280;45801;51.810;19.444;2023-03-16T05:33:29;99524.16;;;1.05;65.14
59939;BME280;45801;51.810;19.444;2023-03-16T05:35:55;99526.77;;;1.09;65.18
59939;BME280;45801;51.810;19.444;2023-03-16T05:38:24;99528.44;;;1.12;65.01
59939;BME280;45801;51.810;19.444;2023-03-16T05:40:52;99531.76;;;1.15;64.69
59939;BME280;45801;51.810;19.444;2023-03-16T05:43:20;99534.62;;;1.16;64.60
59939;BME280;45801;51.810;19.444;2023-03-16T05:45:47;99536.52;;;1.18;64.43
59939;BME280;45801;51.810;19.444;2023-03-16T05:48:13;99535.89;;;1.21;64.62
59939;BME280;45801;51.810;19.444;2023-03-16T05:50:40;99537.30;;;1.26;64.91
59939;BME280;45801;51.810;19.444;2023-03-16T05:53:07;99539.83;;;1.31;65.05
59939;BME280;45801;51.810;19.444;2023-03-16T05:55:34;99541.15;;;1.36;65.08
59939;BME280;45801;51.810;19.444;2023-03-16T05:58:00;99542.83;;;1.40;65.83
59939;BME280;45801;51.810;19.444;2023-03-16T06:00:27;99543.80;;;1.44;65.60
59939;BME280;45801;51.810;19.444;2023-03-16T06:02:55;99546.77;;;1.46;65.99
59939;BME280;45801;51.810;19.444;2023-03-16T06:05:21;99551.38;;;1.45;66.04
59939;BME280;45801;51.810;19.444;2023-03-16T06:07:50;99557.00;;;1.48;65.87
59939;BME280;45801;51.810;19.444;2023-03-16T06:10:17;99555.27;;;1.54;65.80
59939;BME280;45801;51.810;19.444;2023-03-16T06:12:44;99555.00;;;1.62;66.06
59939;BME280;45801;51.810;19.444;2023-03-16T06:15:11;99555.11;;;1.67;65.97
59939;BME280;45801;51.810;19.444;2023-03-16T06:17:38;99558.04;;;1.71;66.01
59939;BME280;45801;51.810;19.444;2023-03-16T06:20:07;99557.89;;;1.76;65.93
59939;BME280;45801;51.810;19.444;2023-03-16T06:22:40;99561.36;;;1.83;65.97
59939;BME280;45801;51.810;19.444;2023-03-16T06:25:08;99561.45;;;1.88;66.20
59939;BME280;45801;51.810;19.444;2023-03-16T06:27:35;99563.18;;;1.92;66.43
59939;BME280;45801;51.810;19.444;2023-03-16T06:30:03;99557.34;;;1.99;66.17
59939;BME280;45801;51.810;19.444;2023-03-16T06:32:30;99551.59;;;2.06;66.09
59939;BME280;45801;51.810;19.444;2023-03-16T06:34:57;99551.14;;;2.14;66.04
59939;BME280;45801;51.810;19.444;2023-03-16T06:37:28;99555.17;;;2.21;66.18
59939;BME280;45801;51.810;19.444;2023-03-16T06:39:54;99558.00;;;2.28;66.00
59939;BME280;45801;51.810;19.444;2023-03-16T06:42:21;99558.11;;;2.36;65.81
59939;BME280;45801;51.810;19.444;2023-03-16T06:44:48;99559.33;;;2.40;66.11
59939;BME280;45801;51.810;19.444;2023-03-16T06:47:14;99559.34;;;2.40;66.95
59939;BME280;45801;51.810;19.444;2023-03-16T06:49:41;99561.89;;;2.46;66.34
59939;BME280;45801;51.810;19.444;2023-03-16T06:52:08;99566.89;;;2.51;66.19
59939;BME280;45801;51.810;19.444;2023-03-16T06:54:36;99567.86;;;2.54;66.40
59939;BME280;45801;51.810;19.444;2023-03-16T06:57:02;99571.75;;;2.59;66.42
59939;BME280;45801;51.810;19.444;2023-03-16T06:59:29;99576.18;;;2.67;65.89
59939;BME280;45801;51.810;19.444;2023-03-16T07:01:55;99578.91;;;2.73;66.10
59939;BME280;45801;51.810;19.444;2023-03-16T07:04:22;99579.95;;;2.76;66.51
59939;BME280;45801;51.810;19.444;2023-03-16T07:06:51;99578.89;;;2.80;66.19
59939;BME280;45801;51.810;19.444;2023-03-16T07:09:19;99577.87;;;2.87;65.83
59939;BME280;45801;51.810;19.444;2023-03-16T07:11:47;99582.38;;;2.93;65.72
59939;BME280;45801;51.810;19.444;2023-03-16T07:14:14;99580.18;;;2.96;65.93
59939;BME280;45801;51.810;19.444;2023-03-16T07:16:43;99582.07;;;3.00;65.76
59939;BME280;45801;51.810;19.444;2023-03-16T07:19:09;99588.06;;;3.02;66.05
59939;BME280;45801;51.810;19.444;2023-03-16T07:21:37;99589.86;;;3.05;66.10
59939;BME280;45801;51.810;19.444;2023-03-16T07:24:08;99589.54;;;3.12;65.99
59939;BME280;45801;51.810;19.444;2023-03-16T07:26:36;99595.16;;;3.15;65.66
59939;BME280;45801;51.810;19.444;2023-03-16T07:29:06;99595.20;;;3.14;65.73
59939;BME280;45801;51.810;19.444;2023-03-16T07:31:38;99596.11;;;3.19;65.98
59939;BME280;45801;51.810;19.444;2023-03-16T07:34:04;99596.88;;;3.21;66.03
59939;BME280;45801;51.810;19.444;2023-03-16T07:36:33;99597.25;;;3.20;66.19
59939;BME280;45801;51.810;19.444;2023-03-16T07:39:03;99601.92;;;3.27;66.24
59939;BME280;45801;51.810;19.444;2023-03-16T07:41:46;99604.13;;;3.28;66.63
59939;BME280;45801;51.810;19.444;2023-03-16T07:44:13;99602.14;;;3.25;67.00
59939;BME280;45801;51.810;19.444;2023-03-16T07:46:41;99600.52;;;3.26;66.70
59939;BME280;45801;51.810;19.444;2023-03-16T07:49:09;99597.60;;;3.33;66.14
59939;BME280;45801;51.810;19.444;2023-03-16T07:51:38;99596.73;;;3.40;66.16
59939;BME280;45801;51.810;19.444;2023-03-16T07:54:05;99598.64;;;3.42;66.41
59939;BME280;45801;51.810;19.444;2023-03-16T07:56:32;99601.93;;;3.51;66.30
59939;BME280;45801;51.810;19.444;2023-03-16T07:59:00;99602.59;;;3.53;65.47
59939;BME280;45801;51.810;19.444;2023-03-16T08:01:28;99606.35;;;3.55;65.31
59939;BME280;45801;51.810;19.444;2023-03-16T08:03:55;99603.02;;;3.54;65.46
59939;BME280;45801;51.810;19.444;2023-03-16T08:06:23;99602.50;;;3.65;65.24
59939;BME280;45801;51.810;19.444;2023-03-16T08:08:51;99602.24;;;3.78;64.51
59939;BME280;45801;51.810;19.444;2023-03-16T08:11:19;99604.19;;;3.85;64.74
59939;BME280;45801;51.810;19.444;2023-03-16T08:13:50;99598.69;;;3.93;64.50
59939;BME280;45801;51.810;19.444;2023-03-16T08:16:21;99598.84;;;4.00;63.94
59939;BME280;45801;51.810;19.444;2023-03-16T08:18:49;99602.15;;;4.05;64.16
59939;BME280;45801;51.810;19.444;2023-03-16T08:21:18;99605.06;;;4.09;64.07
59939;BME280;45801;51.810;19.444;2023-03-16T08:23:46;99606.02;;;4.20;64.29
59939;BME280;45801;51.810;19.444;2023-03-16T08:26:22;99605.71;;;4.32;63.97
59939;BME280;45801;51.810;19.444;2023-03-16T08:28:50;99602.66;;;4.28;63.07
59939;BME280;45801;51.810;19.444;2023-03-16T08:31:18;99603.44;;;4.34;63.76
59939;BME280;45801;51.810;19.444;2023-03-16T08:33:46;99604.85;;;4.44;63.33
59939;BME280;45801;51.810;19.444;2023-03-16T08:36:15;99603.78;;;4.53;62.95
59939;BME280;45801;51.810;19.444;2023-03-16T08:38:51;99605.56;;;4.65;62.27
59939;BME280;45801;51.810;19.444;2023-03-16T08:41:20;99610.87;;;4.72;61.48
59939;BME280;45801;51.810;19.444;2023-03-16T08:43:47;99613.64;;;4.74;61.65
59939;BME280;45801;51.810;19.444;2023-03-16T08:46:14;99613.39;;;4.78;61.58
59939;BME280;45801;51.810;19.444;2023-03-16T08:48:41;99615.73;;;4.86;61.78
59939;BME280;45801;51.810;19.444;2023-03-16T08:51:09;99617.79;;;4.91;60.95
59939;BME280;45801;51.810;19.444;2023-03-16T08:53:38;99620.40;;;4.98;61.40
59939;BME280;45801;51.810;19.444;2023-03-16T08:56:09;99618.95;;;5.00;61.46
59939;BME280;45801;51.810;19.444;2023-03-16T08:58:39;99621.04;;;5.02;60.78
59939;BME280;45801;51.810;19.444;2023-03-16T09:01:17;99627.09;;;5.11;60.78
59939;BME280;45801;51.810;19.444;2023-03-16T09:03:45;99626.30;;;5.20;60.90
59939;BME280;45801;51.810;19.444;2023-03-16T09:06:15;99627.94;;;5.31;60.72
59939;BME280;45801;51.810;19.444;2023-03-16T09:08:43;99624.73;;;5.43;60.13
59939;BME280;45801;51.810;19.444;2023-03-16T09:11:16;99624.30;;;5.52;59.60
59939;BME280;45801;51.810;19.444;2023-03-16T09:13:43;99632.63;;;5.54;59.69
59939;BME280;45801;51.810;19.444;2023-03-16T09:16:11;99633.51;;;5.54;58.64
59939;BME280;45801;51.810;19.444;2023-03-16T09:18:40;99634.47;;;5.55;59.03
59939;BME280;45801;51.810;19.444;2023-03-16T09:21:09;99635.72;;;5.46;57.87
59939;BME280;45801;51.810;19.444;2023-03-16T09:23:40;99638.75;;;5.32;57.12
59939;BME280;45801;51.810;19.444;2023-03-16T09:26:09;99639.27;;;5.32;58.73
59939;BME280;45801;51.810;19.444;2023-03-16T09:28:39;99640.45;;;5.31;59.01
59939;BME280;45801;51.810;19.444;2023-03-16T09:31:12;99640.11;;;5.29;58.70
59939;BME280;45801;51.810;19.444;2023-03-16T09:33:41;99641.73;;;5.17;59.00
59939;BME280;45801;51.810;19.444;2023-03-16T09:36:09;99641.76;;;5.08;59.21
59939;BME280;45801;51.810;19.444;2023-03-16T09:38:42;99643.34;;;5.08;59.46
59939;BME280;45801;51.810;19.444;2023-03-16T09:41:30;99642.90;;;5.22;59.94
59939;BME280;45801;51.810;19.444;2023-03-16T09:44:15;99644.77;;;5.14;59.77
59939;BME280;45801;51.810;19.444;2023-03-16T09:46:48;99648.23;;;4.92;59.50
59939;BME280;45801;51.810;19.444;2023-03-16T09:49:18;99640.77;;;5.06;59.56
59939;BME280;45801;51.810;19.444;2023-03-16T09:51:54;99638.63;;;5.28;59.78
59939;BME280;45801;51.810;19.444;2023-03-16T09:54:38;99636.11;;;5.51;59.79
59939;BME280;45801;51.810;19.444;2023-03-16T09:57:18;99639.67;;;5.70;59.82
59939;BME280;45801;51.810;19.444;2023-03-16T10:00:03;99641.38;;;5.82;58.63
59939;BME280;45801;51.810;19.444;2023-03-16T10:03:14;99642.77;;;5.88;58.30
59939;BME280;45801;51.810;19.444;2023-03-16T10:05:51;99639.41;;;6.09;58.85
59939;BME280;45801;51.810;19.444;2023-03-16T10:08:23;99636.47;;;6.25;57.74
59939;BME280;45801;51.810;19.444;2023-03-16T10:14:43;99641.17;;;6.60;56.49
59939;BME280;45801;51.810;19.444;2023-03-16T10:17:18;99640.92;;;6.69;55.36
59939;BME280;45801;51.810;19.444;2023-03-16T10:19:53;99643.30;;;6.74;55.04
59939;BME280;45801;51.810;19.444;2023-03-16T10:22:30;99644.65;;;6.76;55.34
59939;BME280;45801;51.810;19.444;2023-03-16T10:27:45;99650.34;;;6.81;51.89
59939;BME280;45801;51.810;19.444;2023-03-16T10:30:39;99656.88;;;6.53;51.25
59939;BME280;45801;51.810;19.444;2023-03-16T10:33:21;99664.27;;;6.07;51.72
59939;BME280;45801;51.810;19.444;2023-03-16T10:36:00;99670.13;;;5.89;52.75
59939;BME280;45801;51.810;19.444;2023-03-16T10:41:22;99672.61;;;5.57;54.43
59939;BME280;45801;51.810;19.444;2023-03-16T10:46:26;99674.89;;;5.57;53.94
59939;BME280;45801;51.810;19.444;2023-03-16T10:48:56;99677.95;;;5.56;52.21
59939;BME280;45801;51.810;19.444;2023-03-16T10:51:33;99676.38;;;5.46;50.64
59939;BME280;45801;51.810;19.444;2023-03-16T10:56:41;99674.73;;;5.32;49.76
59939;BME280;45801;51.810;19.444;2023-03-16T10:59:26;99675.19;;;5.43;49.50
59939;BME280;45801;51.810;19.444;2023-03-16T11:01:55;99677.15;;;5.52;47.81
59939;BME280;45801;51.810;19.444;2023-03-16T11:04:30;99678.94;;;5.58;48.73
59939;BME280;45801;51.810;19.444;2023-03-16T11:06:58;99672.84;;;5.67;48.98
59939;BME280;45801;51.810;19.444;2023-03-16T11:09:32;99669.96;;;5.66;48.73
59939;BME280;45801;51.810;19.444;2023-03-16T11:12:11;99670.52;;;5.71;49.53
59939;BME280;45801;51.810;19.444;2023-03-16T11:14:43;99665.41;;;5.93;49.87
59939;BME280;45801;51.810;19.444;2023-03-16T11:17:16;99660.63;;;6.04;48.68
59939;BME280;45801;51.810;19.444;2023-03-16T11:19:52;99659.41;;;6.07;48.75
59939;BME280;45801;51.810;19.444;2023-03-16T11:22:24;99660.29;;;6.02;48.52
59939;BME280;45801;51.810;19.444;2023-03-16T11:25:11;99667.58;;;5.84;48.56
59939;BME280;45801;51.810;19.444;2023-03-16T11:27:55;99668.99;;;5.72;49.07
59939;BME280;45801;51.810;19.444;2023-03-16T11:30:28;99666.91;;;5.72;49.83
59939;BME280;45801;51.810;19.444;2023-03-16T11:32:57;99667.48;;;5.78;49.66
59939;BME280;45801;51.810;19.444;2023-03-16T11:38:17;99665.48;;;6.25;49.32
59939;BME280;45801;51.810;19.444;2023-03-16T11:43:54;99663.55;;;6.48;49.28
59939;BME280;45801;51.810;19.444;2023-03-16T11:46:26;99663.35;;;6.74;49.34
59939;BME280;45801;51.810;19.444;2023-03-16T11:54:51;99649.48;;;7.24;48.32
59939;BME280;45801;51.810;19.444;2023-03-16T11:57:32;99648.58;;;7.30;48.25
59939;BME280;45801;51.810;19.444;2023-03-16T12:01:29;99649.50;;;7.11;47.09
59939;BME280;45801;51.810;19.444;2023-03-16T12:06:01;99649.96;;;6.99;47.32
59939;BME280;45801;51.810;19.444;2023-03-16T12:11:30;99651.40;;;6.78;48.14
59939;BME280;45801;51.810;19.444;2023-03-16T12:14:13;99648.03;;;6.66;48.33
59939;BME280;45801;51.810;19.444;2023-03-16T12:16:47;99651.71;;;6.67;49.78
59939;BME280;45801;51.810;19.444;2023-03-16T12:19:30;99653.14;;;6.67;49.45
59939;BME280;45801;51.810;19.444;2023-03-16T12:22:46;99650.48;;;6.71;48.43
59939;BME280;45801;51.810;19.444;2023-03-16T12:24:53;99648.45;;;6.99;49.07
59939;BME280;45801;51.810;19.444;2023-03-16T12:27:24;99644.68;;;7.34;48.73
59939;BME280;45801;51.810;19.444;2023-03-16T12:33:00;99632.58;;;7.96;46.11
59939;BME280;45801;51.810;19.444;2023-03-16T12:41:22;99623.94;;;8.32;41.61
59939;BME280;45801;51.810;19.444;2023-03-16T12:46:43;99631.48;;;7.72;41.62
59939;BME280;45801;51.810;19.444;2023-03-16T12:49:12;99640.12;;;7.20;43.23
59939;BME280;45801;51.810;19.444;2023-03-16T12:51:42;99640.80;;;7.08;44.08
59939;BME280;45801;51.810;19.444;2023-03-16T12:54:21;99640.77;;;7.05;44.36
59939;BME280;45801;51.810;19.444;2023-03-16T12:56:50;99640.86;;;6.93;44.74
59939;BME280;45801;51.810;19.444;2023-03-16T12:59:24;99644.36;;;6.85;45.36
59939;BME280;45801;51.810;19.444;2023-03-16T13:02:02;99645.30;;;6.72;46.08
59939;BME280;45801;51.810;19.444;2023-03-16T13:04:38;99649.91;;;6.55;46.45
59939;BME280;45801;51.810;19.444;2023-03-16T13:07:14;99648.23;;;6.56;47.47
59939;BME280;45801;51.810;19.444;2023-03-16T13:09:46;99648.55;;;6.58;47.85
59939;BME280;45801;51.810;19.444;2023-03-16T13:12:32;99651.60;;;6.62;48.28
59939;BME280;45801;51.810;19.444;2023-03-16T13:18:05;99650.95;;;6.55;48.58
59939;BME280;45801;51.810;19.444;2023-03-16T13:20:50;99658.44;;;6.44;48.90
59939;BME280;45801;51.810;19.444;2023-03-16T13:23:23;99659.94;;;6.22;49.26
59939;BME280;45801;51.810;19.444;2023-03-16T13:26:15;99659.27;;;6.15;49.80
59939;BME280;45801;51.810;19.444;2023-03-16T13:28:51;99659.20;;;6.11;49.93
59939;BME280;45801;51.810;19.444;2023-03-16T13:31:27;99660.85;;;6.07;50.13
59939;BME280;45801;51.810;19.444;2023-03-16T13:33:56;99664.54;;;6.05;49.86
59939;BME280;45801;51.810;19.444;2023-03-16T13:36:27;99660.15;;;6.10;49.76
59939;BME280;45801;51.810;19.444;2023-03-16T13:39:03;99658.56;;;6.12;49.33
59939;BME280;45801;51.810;19.444;2023-03-16T13:41:32;99659.83;;;6.13;48.65
59939;BME280;45801;51.810;19.444;2023-03-16T13:44:00;99661.65;;;6.17;48.37
59939;BME280;45801;51.810;19.444;2023-03-16T13:46:28;99664.01;;;6.24;47.94
59939;BME280;45801;51.810;19.444;2023-03-16T13:48:58;99663.08;;;6.25;47.51
59939;BME280;45801;51.810;19.444;2023-03-16T13:51:29;99661.96;;;6.24;47.10
59939;BME280;45801;51.810;19.444;2023-03-16T13:53:57;99658.30;;;6.29;47.28
59939;BME280;45801;51.810;19.444;2023-03-16T13:56:26;99656.73;;;6.42;45.87
59939;BME280;45801;51.810;19.444;2023-03-16T13:58:56;99655.67;;;6.58;45.12
59939;BME280;45801;51.810;19.444;2023-03-16T14:01:30;99656.06;;;6.75;45.63
59939;BME280;45801;51.810;19.444;2023-03-16T14:04:00;99659.20;;;6.80;45.48
59939;BME280;45801;51.810;19.444;2023-03-16T14:06:33;99656.50;;;6.92;45.17
59939;BME280;45801;51.810;19.444;2023-03-16T14:09:05;99654.52;;;7.02;43.31